Time;durP1;ratioP1;P1;durP2;ratioP2;P2;SDS_P1;SDS_P2;PMS_P1;PMS_P2;Temp;Humidity;BMP_temperature;BMP_pressure;BME280_temperature;BME280_humidity;BME280_pressure;Samples;Min_cycle;Max_cycle;Signal;HPM_P1;HPM_P2
2020/12/19 00:02:18;;;;;;;14.60;13.30;;;4.30;99.90;;;;;;5097932;28;20614;-89
2020/12/19 00:04:45;;;;;;;15.63;14.20;;;4.20;99.90;;;;;;5089730;28;20657;-87
2020/12/19 00:07:11;;;;;;;16.10;14.70;;;4.20;99.90;;;;;;5095220;28;20666;-88
2020/12/19 00:09:38;;;;;;;15.93;14.43;;;4.20;99.90;;;;;;5097680;28;20625;-87
2020/12/19 00:12:06;;;;;;;18.70;17.10;;;4.30;99.90;;;;;;5090959;28;21406;-87
2020/12/19 00:14:33;;;;;;;18.00;16.50;;;4.30;99.90;;;;;;5083837;28;20635;-87
2020/12/19 00:16:59;;;;;;;18.50;16.30;;;4.30;99.90;;;;;;5093975;28;20665;-88
2020/12/19 00:19:31;;;;;;;16.80;15.10;;;4.30;99.90;;;;;;5091142;28;20624;-88
2020/12/19 00:21:58;;;;;;;17.33;15.93;;;4.30;99.90;;;;;;5090270;28;20676;-87
2020/12/19 00:24:25;;;;;;;16.40;15.00;;;4.30;99.90;;;;;;5089437;28;20584;-90
2020/12/19 00:26:51;;;;;;;16.70;15.20;;;4.30;99.90;;;;;;5092130;28;21030;-90
2020/12/19 00:29:17;;;;;;;17.27;15.77;;;4.20;99.90;;;;;;5095640;28;20628;-89
2020/12/19 00:31:44;;;;;;;16.47;14.97;;;4.10;99.90;;;;;;5083381;28;20661;-90
2020/12/19 00:34:10;;;;;;;18.83;17.23;;;4.10;99.90;;;;;;5088373;28;20668;-88
2020/12/19 00:36:37;;;;;;;16.30;14.90;;;4.10;99.90;;;;;;5088080;28;20642;-88
2020/12/19 00:39:06;;;;;;;17.00;15.43;;;4.20;99.90;;;;;;5090419;28;20674;-87
2020/12/19 00:41:33;;;;;;;16.63;15.23;;;4.10;99.90;;;;;;5089715;28;20650;-88
2020/12/19 00:44:03;;;;;;;16.50;15.10;;;4.10;99.90;;;;;;5095599;28;20642;-88
2020/12/19 00:46:29;;;;;;;17.30;15.80;;;4.10;99.90;;;;;;5094748;28;20673;-87
2020/12/19 00:48:55;;;;;;;17.80;16.20;;;4.00;99.90;;;;;;5094410;28;20643;-87
2020/12/19 00:51:32;;;;;;;17.40;15.80;;;4.00;99.90;;;;;;5091728;28;21198;-88
2020/12/19 00:53:58;;;;;;;16.80;15.13;;;3.90;99.90;;;;;;5094359;28;20629;-88
2020/12/19 00:56:27;;;;;;;17.43;15.83;;;3.90;99.90;;;;;;5100328;28;20634;-87
2020/12/19 00:58:54;;;;;;;18.20;16.63;;;3.90;99.90;;;;;;5118120;28;20632;-88
2020/12/19 01:01:22;;;;;;;16.63;15.17;;;4.00;99.90;;;;;;5106133;28;21143;-88
2020/12/19 01:03:49;;;;;;;16.90;15.40;;;4.00;99.90;;;;;;5104323;28;20635;-87
2020/12/19 01:06:16;;;;;;;17.23;15.40;;;4.00;99.90;;;;;;5081616;28;20675;-88
2020/12/19 01:08:46;;;;;;;16.13;14.43;;;4.00;99.90;;;;;;5094845;28;21170;-88
2020/12/19 01:11:14;;;;;;;17.20;15.77;;;3.90;99.90;;;;;;5097572;28;20620;-88
2020/12/19 01:13:41;;;;;;;15.57;14.27;;;3.80;99.90;;;;;;5098842;28;20611;-87
2020/12/19 01:16:08;;;;;;;17.50;15.90;;;3.70;99.90;;;;;;5096577;28;21007;-87
2020/12/19 01:18:34;;;;;;;17.93;16.30;;;3.70;99.90;;;;;;5100881;28;20645;-88
2020/12/19 01:21:01;;;;;;;16.43;15.00;;;3.80;99.90;;;;;;5088930;28;20706;-89
2020/12/19 01:23:27;;;;;;;17.50;16.03;;;3.70;99.90;;;;;;5091211;28;20636;-88
2020/12/19 01:25:54;;;;;;;17.37;15.80;;;3.70;99.90;;;;;;5100604;28;20687;-89
2020/12/19 01:28:22;;;;;;;17.07;15.57;;;3.60;99.90;;;;;;5093433;28;20673;-88
2020/12/19 01:30:49;;;;;;;17.03;15.50;;;3.60;99.90;;;;;;5094366;28;20650;-89
2020/12/19 01:33:16;;;;;;;18.17;16.47;;;3.70;99.90;;;;;;5093550;28;20651;-87
2020/12/19 01:35:42;;;;;;;16.63;15.17;;;3.70;99.90;;;;;;5093455;28;21188;-87
2020/12/19 01:38:08;;;;;;;17.43;15.93;;;3.70;99.90;;;;;;5093190;28;20636;-87
2020/12/19 01:40:35;;;;;;;16.77;15.27;;;3.70;99.90;;;;;;5095065;28;20624;-87
2020/12/19 01:43:03;;;;;;;19.43;17.53;;;3.70;99.90;;;;;;5101795;28;20696;-87
2020/12/19 01:45:29;;;;;;;17.23;15.73;;;3.60;99.90;;;;;;5092259;28;20654;-87
2020/12/19 01:47:57;;;;;;;19.03;15.80;;;3.60;99.90;;;;;;5092375;28;20659;-87
2020/12/19 01:50:23;;;;;;;16.73;15.23;;;3.60;99.90;;;;;;5089305;28;20625;-89
2020/12/19 01:52:51;;;;;;;16.07;14.50;;;3.60;99.90;;;;;;5098425;28;20635;-88
2020/12/19 01:55:17;;;;;;;17.60;16.00;;;3.50;99.90;;;;;;5094085;28;20656;-89
2020/12/19 01:57:43;;;;;;;17.67;16.07;;;3.40;99.90;;;;;;5097475;28;20622;-88
2020/12/19 02:00:10;;;;;;;16.80;15.30;;;3.40;99.90;;;;;;5089659;28;20620;-88
2020/12/19 02:02:36;;;;;;;16.47;15.03;;;3.60;99.90;;;;;;5093394;28;20618;-88
2020/12/19 02:05:03;;;;;;;17.30;15.70;;;3.50;99.90;;;;;;5094588;28;20644;-88
2020/12/19 02:07:30;;;;;;;15.90;14.50;;;3.40;99.90;;;;;;5094827;28;20659;-88
2020/12/19 02:09:57;;;;;;;17.77;16.17;;;3.40;99.90;;;;;;5094832;28;20636;-88
2020/12/19 02:12:24;;;;;;;16.67;15.17;;;3.30;99.90;;;;;;5082771;28;20653;-89
2020/12/19 02:14:50;;;;;;;17.20;15.40;;;3.30;99.90;;;;;;5094602;28;20657;-89
2020/12/19 02:17:16;;;;;;;18.57;16.67;;;3.30;99.90;;;;;;5095797;27;21178;-87
2020/12/19 02:19:42;;;;;;;18.43;16.83;;;3.30;99.90;;;;;;5091671;28;20674;-87
2020/12/19 02:22:10;;;;;;;18.97;17.30;;;3.30;99.90;;;;;;5096809;28;20639;-87
2020/12/19 02:24:38;;;;;;;17.60;16.10;;;3.30;99.90;;;;;;5091502;28;21200;-87
2020/12/19 02:27:04;;;;;;;16.83;15.23;;;3.20;99.90;;;;;;5097031;28;20685;-87
2020/12/19 02:29:32;;;;;;;17.20;15.70;;;3.20;99.90;;;;;;5094494;28;21036;-87
2020/12/19 02:32:00;;;;;;;17.40;15.90;;;3.20;99.90;;;;;;5096645;27;20678;-87
2020/12/19 02:34:26;;;;;;;18.67;16.87;;;3.30;99.90;;;;;;5096713;28;20654;-87
2020/12/19 02:36:53;;;;;;;19.40;17.60;;;3.30;99.90;;;;;;5097569;28;20616;-87
2020/12/19 02:39:20;;;;;;;19.17;17.47;;;3.30;99.90;;;;;;5095945;28;20634;-87
2020/12/19 02:41:49;;;;;;;18.60;16.73;;;3.30;99.90;;;;;;5103372;28;21042;-87
2020/12/19 02:44:17;;;;;;;18.90;17.10;;;3.20;99.90;;;;;;5093154;27;20648;-88
2020/12/19 02:46:44;;;;;;;16.90;15.37;;;3.20;99.90;;;;;;5099838;28;20683;-87
2020/12/19 02:49:11;;;;;;;17.87;15.90;;;3.20;99.90;;;;;;5093446;28;20635;-88
2020/12/19 02:51:42;;;;;;;17.50;15.90;;;3.20;99.90;;;;;;5095575;28;20613;-88
2020/12/19 02:54:08;;;;;;;18.57;16.73;;;3.20;99.90;;;;;;5096469;28;20622;-88
2020/12/19 02:56:35;;;;;;;18.37;16.57;;;3.10;99.90;;;;;;5094998;28;20648;-87
2020/12/19 02:59:02;;;;;;;17.57;16.03;;;3.20;99.90;;;;;;5079319;28;20641;-87
2020/12/19 03:01:29;;;;;;;16.63;14.93;;;3.20;99.90;;;;;;5089678;28;20620;-87
2020/12/19 03:03:55;;;;;;;16.03;14.57;;;3.10;99.90;;;;;;5085394;28;20629;-86
2020/12/19 03:06:22;;;;;;;17.80;16.10;;;3.10;99.90;;;;;;5094021;28;20664;-88
2020/12/19 03:08:48;;;;;;;17.93;16.40;;;3.00;99.90;;;;;;5099986;28;20640;-88
2020/12/19 03:11:16;;;;;;;18.80;16.90;;;3.00;99.90;;;;;;5095840;28;20928;-88
2020/12/19 03:13:42;;;;;;;18.87;17.30;;;3.10;99.90;;;;;;5087093;28;20647;-87
2020/12/19 03:16:12;;;;;;;19.93;18.07;;;3.10;99.90;;;;;;5088538;28;21225;-88
2020/12/19 03:18:38;;;;;;;18.13;16.43;;;3.10;99.90;;;;;;5087471;28;20644;-88
2020/12/19 03:21:05;;;;;;;16.70;15.00;;;3.20;99.90;;;;;;5089963;28;20618;-88
2020/12/19 03:23:34;;;;;;;17.60;16.00;;;3.10;99.90;;;;;;5086727;28;20626;-89
2020/12/19 03:26:00;;;;;;;17.07;15.57;;;3.10;99.90;;;;;;5094038;28;20651;-89
2020/12/19 03:28:26;;;;;;;18.30;16.50;;;3.00;99.90;;;;;;5097365;28;20624;-87
2020/12/19 03:30:53;;;;;;;17.90;16.20;;;3.00;99.90;;;;;;5090115;28;20644;-89
2020/12/19 03:33:21;;;;;;;18.10;16.50;;;2.90;99.90;;;;;;5086919;28;20743;-89
2020/12/19 03:35:47;;;;;;;18.03;16.23;;;3.00;99.90;;;;;;5093989;28;20636;-89
2020/12/19 03:38:13;;;;;;;18.83;17.13;;;3.00;99.90;;;;;;5100891;28;20635;-89
2020/12/19 03:40:39;;;;;;;19.07;17.03;;;3.00;99.90;;;;;;5096737;28;20632;-89
2020/12/19 03:43:05;;;;;;;18.10;16.60;;;3.00;99.90;;;;;;5103262;28;20617;-88
2020/12/19 03:45:32;;;;;;;17.23;15.40;;;2.90;99.90;;;;;;5087451;28;20671;-88
2020/12/19 03:47:58;;;;;;;17.40;15.80;;;2.90;99.90;;;;;;5095564;28;20674;-89
2020/12/19 03:50:25;;;;;;;17.03;15.50;;;2.90;99.90;;;;;;5083023;28;20629;-89
2020/12/19 03:52:51;;;;;;;16.43;14.93;;;2.90;99.90;;;;;;5088919;28;20616;-89
2020/12/19 03:55:19;;;;;;;26.27;16.50;;;2.80;99.90;;;;;;5098701;28;20693;-89
2020/12/19 03:57:45;;;;;;;15.87;14.37;;;2.70;99.90;;;;;;5091522;28;20616;-88
2020/12/19 04:00:12;;;;;;;15.60;14.20;;;2.70;99.90;;;;;;5096976;28;21014;-88
2020/12/19 04:02:38;;;;;;;18.37;16.63;;;2.60;99.90;;;;;;5086400;28;20628;-89
2020/12/19 04:05:09;;;;;;;15.80;14.33;;;2.70;99.90;;;;;;5086195;28;20649;-87
2020/12/19 04:07:36;;;;;;;15.57;14.00;;;2.70;99.90;;;;;;5093973;28;20676;-87
2020/12/19 04:10:04;;;;;;;15.50;14.20;;;2.60;99.90;;;;;;5089087;28;20625;-86
2020/12/19 04:12:30;;;;;;;16.07;14.50;;;2.60;99.90;;;;;;5090211;28;20620;-86
2020/12/19 04:14:56;;;;;;;17.10;15.60;;;2.60;99.90;;;;;;5083673;28;20664;-85
2020/12/19 04:17:23;;;;;;;16.53;15.07;;;2.60;99.90;;;;;;5089426;28;20616;-86
2020/12/19 04:19:49;;;;;;;16.30;14.87;;;2.60;99.90;;;;;;5113554;28;20611;-86
2020/12/19 04:22:15;;;;;;;14.47;13.27;;;2.60;99.90;;;;;;5119647;28;20642;-86
2020/12/19 04:24:43;;;;;;;17.50;15.80;;;2.50;99.90;;;;;;5094361;28;20931;-86
2020/12/19 04:27:09;;;;;;;15.97;14.63;;;2.60;99.90;;;;;;5095408;28;20665;-86
2020/12/19 04:29:36;;;;;;;15.20;13.80;;;2.60;99.90;;;;;;5099802;28;20689;-86
2020/12/19 04:32:02;;;;;;;13.83;12.60;;;2.60;99.90;;;;;;5089781;28;20624;-86
2020/12/19 04:34:28;;;;;;;15.50;13.90;;;2.60;99.90;;;;;;5096875;28;21213;-86
2020/12/19 04:36:55;;;;;;;15.53;14.23;;;2.50;99.90;;;;;;5096548;28;21204;-86
2020/12/19 04:39:22;;;;;;;16.47;15.00;;;2.50;99.90;;;;;;5074523;28;20639;-85
2020/12/19 04:41:50;;;;;;;15.67;14.00;;;2.50;99.90;;;;;;5094414;28;21189;-86
2020/12/19 04:44:17;;;;;;;14.47;13.17;;;2.50;99.90;;;;;;5095040;28;20633;-85
2020/12/19 04:46:44;;;;;;;14.80;13.50;;;2.50;99.90;;;;;;5096260;28;20687;-85
2020/12/19 04:49:11;;;;;;;15.87;14.47;;;2.40;99.90;;;;;;5093501;28;20617;-86
2020/12/19 04:51:37;;;;;;;15.90;14.50;;;2.40;99.90;;;;;;5090159;28;20624;-86
2020/12/19 04:54:05;;;;;;;15.57;14.10;;;2.50;99.90;;;;;;5084201;28;20662;-85
2020/12/19 04:56:32;;;;;;;15.20;13.80;;;2.40;99.90;;;;;;5090153;28;20587;-86
2020/12/19 04:59:01;;;;;;;15.03;13.53;;;2.40;99.90;;;;;;5092538;28;20627;-86
2020/12/19 05:01:28;;;;;;;14.63;13.43;;;2.40;99.90;;;;;;5089800;28;20689;-85
2020/12/19 05:04:04;;;;;;;15.53;14.23;;;2.50;99.90;;;;;;5083925;28;20740;-85
2020/12/19 05:06:30;;;;;;;15.40;13.90;;;2.40;99.90;;;;;;5081625;28;20656;-85
2020/12/19 05:08:57;;;;;;;14.60;13.40;;;2.40;99.90;;;;;;5097490;28;20616;-85
2020/12/19 05:11:25;;;;;;;16.20;14.70;;;2.40;99.90;;;;;;5089158;28;20751;-85
2020/12/19 05:13:55;;;;;;;15.63;14.13;;;2.40;99.90;;;;;;5093732;28;21007;-85
2020/12/19 05:16:23;;;;;;;15.83;14.43;;;2.40;99.90;;;;;;5089142;28;20624;-85
2020/12/19 05:18:50;;;;;;;16.40;14.63;;;2.40;99.90;;;;;;5085011;28;20658;-85
2020/12/19 05:21:24;;;;;;;15.30;13.90;;;2.40;99.90;;;;;;5090042;28;20659;-86
2020/12/19 05:23:51;;;;;;;15.43;13.83;;;2.40;99.90;;;;;;5090719;28;21613;-85
2020/12/19 05:26:18;;;;;;;16.07;14.60;;;2.40;99.90;;;;;;5099978;28;20686;-85
2020/12/19 05:28:47;;;;;;;18.87;17.07;;;2.30;99.90;;;;;;5100016;28;21000;-85
2020/12/19 05:31:13;;;;;;;19.07;17.30;;;2.20;99.90;;;;;;5095009;28;20653;-85
2020/12/19 05:33:42;;;;;;;25.23;22.63;;;2.10;99.90;;;;;;5096175;28;20635;-85
2020/12/19 05:36:19;;;;;;;22.33;20.07;;;2.20;99.90;;;;;;5097932;28;20618;-85
2020/12/19 05:38:49;;;;;;;24.53;21.93;;;2.20;99.90;;;;;;5094987;28;20599;-85
2020/12/19 05:41:15;;;;;;;28.90;23.23;;;2.20;99.90;;;;;;5094488;28;21251;-85
2020/12/19 05:43:47;;;;;;;38.00;29.57;;;2.30;99.90;;;;;;5094433;28;20624;-85
2020/12/19 05:46:27;;;;;;;61.40;46.50;;;2.20;99.90;;;;;;5098685;28;20624;-85
2020/12/19 05:48:54;;;;;;;60.83;43.33;;;2.20;99.90;;;;;;5084414;28;20630;-85
2020/12/19 05:51:20;;;;;;;40.23;31.43;;;2.10;99.90;;;;;;5094769;28;20648;-84
2020/12/19 05:53:51;;;;;;;45.83;31.53;;;2.20;99.90;;;;;;5099183;28;20620;-85
2020/12/19 05:56:20;;;;;;;29.47;23.60;;;2.10;99.90;;;;;;5098256;28;20608;-86
2020/12/19 05:58:47;;;;;;;49.47;34.77;;;2.10;99.90;;;;;;5095370;28;20647;-86
2020/12/19 06:01:16;;;;;;;106.00;75.97;;;2.10;99.90;;;;;;5092536;28;20651;-86
2020/12/19 06:03:45;;;;;;;73.70;55.63;;;2.10;99.90;;;;;;5109626;28;20635;-87
2020/12/19 06:06:13;;;;;;;91.50;68.90;;;2.00;99.90;;;;;;5092904;28;21301;-86
2020/12/19 06:08:40;;;;;;;110.63;80.70;;;1.90;99.90;;;;;;5096605;28;20624;-86
2020/12/19 06:11:14;;;;;;;86.93;64.10;;;1.90;99.90;;;;;;5097671;28;21210;-85
2020/12/19 06:13:48;;;;;;;54.40;42.77;;;1.90;99.90;;;;;;5096977;28;21181;-86
2020/12/19 06:16:17;;;;;;;43.20;33.90;;;2.10;99.90;;;;;;5099462;28;20650;-86
2020/12/19 06:19:01;;;;;;;40.67;33.73;;;2.10;99.90;;;;;;5094005;28;21174;-86
2020/12/19 06:21:30;;;;;;;30.53;27.23;;;2.00;99.90;;;;;;5086393;28;21033;-86
2020/12/19 06:23:56;;;;;;;30.20;25.77;;;2.00;99.90;;;;;;5096872;28;20984;-86
2020/12/19 06:26:35;;;;;;;30.27;26.80;;;2.00;99.90;;;;;;5098177;28;20670;-86
2020/12/19 06:29:02;;;;;;;28.93;25.77;;;1.90;99.90;;;;;;5098789;27;20611;-86
2020/12/19 06:31:31;;;;;;;38.10;34.40;;;1.90;99.90;;;;;;5093455;28;20709;-86
2020/12/19 06:34:03;;;;;;;29.43;26.43;;;1.80;99.90;;;;;;5096487;28;20628;-86
2020/12/19 06:36:34;;;;;;;24.57;22.30;;;2.00;99.90;;;;;;5094577;28;20631;-86
2020/12/19 06:39:10;;;;;;;20.40;18.30;;;1.90;99.90;;;;;;5097436;28;20629;-86
2020/12/19 06:41:46;;;;;;;22.77;20.50;;;1.90;99.90;;;;;;5095260;28;20624;-86
2020/12/19 06:44:14;;;;;;;18.53;16.77;;;1.90;99.90;;;;;;5094443;28;20638;-86
2020/12/19 06:46:42;;;;;;;18.43;16.73;;;1.90;99.90;;;;;;5101080;28;20664;-86
2020/12/19 06:49:36;;;;;;;16.87;15.37;;;2.00;99.90;;;;;;5093198;28;20593;-86
2020/12/19 06:52:06;;;;;;;16.77;15.17;;;1.90;99.90;;;;;;5063628;28;20637;-86
2020/12/19 06:54:34;;;;;;;16.97;15.30;;;1.90;99.90;;;;;;5090501;28;20606;-86
2020/12/19 06:57:02;;;;;;;17.33;15.73;;;1.90;99.90;;;;;;5091574;28;20609;-85
2020/12/19 06:59:29;;;;;;;18.20;16.60;;;1.90;99.90;;;;;;5093011;28;20648;-86
2020/12/19 07:02:20;;;;;;;15.00;13.63;;;1.90;99.90;;;;;;5098106;28;21153;-86
2020/12/19 07:04:47;;;;;;;17.53;15.80;;;1.80;99.90;;;;;;5071139;28;20985;-86
2020/12/19 07:07:17;;;;;;;16.70;15.10;;;1.70;99.90;;;;;;5096813;28;20664;-87
2020/12/19 07:09:54;;;;;;;17.17;15.67;;;1.80;99.90;;;;;;5097559;28;21259;-86
2020/12/19 07:12:35;;;;;;;16.60;14.90;;;1.80;99.90;;;;;;5097979;28;20611;-86
2020/12/19 07:15:03;;;;;;;18.53;16.63;;;1.70;99.90;;;;;;5098516;28;20627;-86
2020/12/19 07:17:29;;;;;;;16.40;14.90;;;1.80;99.90;;;;;;5095449;28;20628;-87
2020/12/19 07:20:00;;;;;;;17.10;15.40;;;1.80;99.90;;;;;;5090799;28;20656;-86
2020/12/19 07:22:31;;;;;;;16.87;15.37;;;1.80;99.90;;;;;;5094586;28;20627;-86
2020/12/19 07:24:57;;;;;;;15.50;14.10;;;1.90;99.90;;;;;;5088569;28;21171;-87
2020/12/19 07:27:24;;;;;;;16.50;15.10;;;1.80;99.90;;;;;;5085546;28;21026;-87
2020/12/19 07:29:57;;;;;;;16.17;14.67;;;1.80;99.90;;;;;;5092217;28;20648;-86
2020/12/19 07:32:25;;;;;;;17.10;15.40;;;1.90;99.90;;;;;;5084166;28;20629;-87
2020/12/19 07:34:55;;;;;;;16.43;14.87;;;1.80;99.90;;;;;;5088806;28;20661;-87
2020/12/19 07:37:22;;;;;;;17.53;15.93;;;1.80;99.90;;;;;;5090992;28;21018;-85
2020/12/19 07:39:51;;;;;;;15.17;13.87;;;1.80;99.90;;;;;;5091947;28;21107;-87
2020/12/19 07:42:21;;;;;;;15.57;14.23;;;1.90;99.90;;;;;;5102542;28;20640;-87
2020/12/19 07:44:50;;;;;;;14.87;13.47;;;1.90;99.90;;;;;;5113205;28;21139;-88
2020/12/19 07:47:17;;;;;;;15.90;14.50;;;2.00;99.90;;;;;;5098142;28;20694;-86
2020/12/19 07:49:48;;;;;;;14.87;13.50;;;2.00;99.90;;;;;;5095998;28;20658;-87
2020/12/19 07:52:18;;;;;;;16.90;15.40;;;2.10;99.90;;;;;;5093416;28;20667;-86
2020/12/19 07:54:55;;;;;;;15.97;14.53;;;2.20;99.90;;;;;;5092060;28;21216;-86
2020/12/19 07:57:23;;;;;;;13.13;11.83;;;2.30;99.90;;;;;;5096607;28;20992;-86
2020/12/19 07:59:50;;;;;;;15.67;14.17;;;2.30;99.90;;;;;;5106167;28;20959;-88
2020/12/19 08:02:17;;;;;;;16.80;15.40;;;2.40;99.90;;;;;;5091106;28;20722;-88
2020/12/19 08:04:53;;;;;;;17.83;16.33;;;2.50;99.90;;;;;;5095164;28;20632;-87
2020/12/19 08:07:25;;;;;;;16.03;14.53;;;2.60;99.90;;;;;;5103721;28;20988;-88
2020/12/19 08:10:15;;;;;;;15.23;13.83;;;2.90;99.90;;;;;;5099489;28;20729;-87
2020/12/19 08:12:43;;;;;;;15.20;13.90;;;3.10;99.90;;;;;;5098407;28;20936;-87
2020/12/19 08:15:11;;;;;;;13.43;12.20;;;3.20;99.90;;;;;;5089764;28;20617;-87
2020/12/19 08:17:47;;;;;;;14.10;13.00;;;3.20;99.90;;;;;;5092384;28;20690;-88
2020/12/19 08:20:16;;;;;;;13.13;12.07;;;3.20;99.90;;;;;;5096595;28;21347;-87
2020/12/19 08:22:43;;;;;;;13.80;12.60;;;3.30;99.90;;;;;;5097431;28;20616;-87
2020/12/19 08:25:11;;;;;;;13.23;12.03;;;3.40;99.90;;;;;;5092259;28;20660;-87
2020/12/19 08:27:47;;;;;;;13.00;11.90;;;3.50;99.90;;;;;;5088993;28;20664;-87
2020/12/19 08:30:16;;;;;;;11.87;10.80;;;3.60;99.90;;;;;;5088842;28;21005;-87
2020/12/19 08:32:46;;;;;;;11.93;10.83;;;3.60;99.90;;;;;;5081661;28;21017;-87
2020/12/19 08:35:18;;;;;;;11.47;10.47;;;3.80;99.90;;;;;;5086817;28;20621;-87
2020/12/19 08:37:45;;;;;;;12.80;11.70;;;3.90;99.90;;;;;;5095692;28;20626;-87
2020/12/19 08:40:14;;;;;;;11.80;10.87;;;4.00;99.90;;;;;;5103663;28;20654;-88
2020/12/19 08:42:41;;;;;;;11.87;10.77;;;4.20;99.90;;;;;;5089261;28;20620;-87
2020/12/19 08:45:12;;;;;;;11.10;9.87;;;4.30;99.90;;;;;;5091723;28;20652;-87
2020/12/19 08:47:40;;;;;;;9.23;8.50;;;4.30;99.90;;;;;;5092193;28;20674;-87
2020/12/19 08:50:07;;;;;;;10.27;9.30;;;4.40;99.90;;;;;;5094902;28;20649;-87
2020/12/19 08:52:34;;;;;;;9.97;9.17;;;4.50;99.90;;;;;;5098674;28;21118;-89
2020/12/19 08:55:00;;;;;;;10.27;9.37;;;4.60;99.90;;;;;;5096888;28;20669;-88
2020/12/19 08:57:28;;;;;;;10.07;9.17;;;4.80;99.90;;;;;;5094376;28;20620;-87
2020/12/19 09:00:09;;;;;;;9.10;8.33;;;5.00;99.90;;;;;;5092312;28;20661;-86
2020/12/19 09:02:38;;;;;;;9.97;9.10;;;5.20;99.90;;;;;;5085612;28;20630;-88
2020/12/19 09:05:04;;;;;;;9.37;8.47;;;5.30;99.90;;;;;;5084358;28;20651;-88
2020/12/19 09:07:30;;;;;;;9.97;9.07;;;5.60;99.90;;;;;;5097323;28;21362;-87
2020/12/19 09:09:57;;;;;;;10.00;9.10;;;5.60;99.90;;;;;;5093661;28;20626;-87
2020/12/19 09:12:23;;;;;;;10.03;9.13;;;5.60;99.90;;;;;;5093615;28;20629;-87
2020/12/19 09:14:51;;;;;;;9.67;8.83;;;5.80;99.90;;;;;;5096402;28;20662;-87
2020/12/19 09:17:27;;;;;;;10.07;9.07;;;5.90;99.90;;;;;;5096569;28;20630;-87
2020/12/19 09:20:01;;;;;;;9.83;9.00;;;6.10;99.90;;;;;;5092799;28;21174;-87
2020/12/19 09:22:28;;;;;;;9.30;8.40;;;6.30;99.90;;;;;;5103411;28;20723;-88
2020/12/19 09:24:54;;;;;;;8.47;7.77;;;6.40;99.90;;;;;;5091895;28;20677;-87
2020/12/19 09:27:20;;;;;;;8.60;7.90;;;6.60;99.90;;;;;;5096574;28;20662;-87
2020/12/19 09:29:46;;;;;;;10.40;9.40;;;6.70;99.90;;;;;;5087448;28;20642;-87
2020/12/19 09:32:14;;;;;;;9.83;8.93;;;6.90;99.90;;;;;;5096661;28;20692;-87
2020/12/19 09:34:40;;;;;;;9.50;8.70;;;7.10;99.90;;;;;;5095829;28;20629;-87
2020/12/19 09:37:07;;;;;;;9.67;8.77;;;7.20;99.90;;;;;;5091566;28;20617;-87
2020/12/19 09:39:33;;;;;;;8.57;7.77;;;7.30;99.90;;;;;;5092165;28;20660;-87
2020/12/19 09:42:00;;;;;;;11.23;9.27;;;7.30;99.90;;;;;;5089995;28;20633;-87
2020/12/19 09:44:26;;;;;;;10.10;9.20;;;7.40;99.90;;;;;;5097177;28;20622;-87
2020/12/19 09:46:52;;;;;;;10.20;8.53;;;7.60;99.90;;;;;;5108155;28;20681;-87
2020/12/19 09:49:22;;;;;;;9.33;8.43;;;7.80;99.90;;;;;;5100643;28;20672;-87
2020/12/19 09:51:52;;;;;;;9.50;8.60;;;8.00;99.90;;;;;;5097595;28;20618;-87
2020/12/19 09:54:19;;;;;;;9.40;8.40;;;8.10;99.90;;;;;;5099707;28;20655;-88
2020/12/19 09:56:45;;;;;;;9.23;8.20;;;8.20;99.90;;;;;;5098905;28;20646;-86
2020/12/19 09:59:12;;;;;;;9.80;8.93;;;8.30;99.90;;;;;;5099428;28;20641;-86
2020/12/19 10:01:39;;;;;;;8.70;8.00;;;8.40;99.90;;;;;;5080351;28;20634;-86
2020/12/19 10:04:06;;;;;;;8.60;7.80;;;8.50;99.90;;;;;;5091685;28;20710;-87
2020/12/19 10:06:33;;;;;;;10.60;9.50;;;8.60;99.90;;;;;;5093768;28;20987;-87
2020/12/19 10:08:59;;;;;;;9.67;8.77;;;8.70;99.90;;;;;;5092473;28;20619;-87
2020/12/19 10:11:27;;;;;;;9.37;8.57;;;8.60;99.90;;;;;;5095013;28;20627;-87
2020/12/19 10:13:56;;;;;;;10.47;9.47;;;8.80;99.90;;;;;;5093093;28;20687;-85
2020/12/19 10:16:23;;;;;;;9.63;8.83;;;9.00;99.90;;;;;;5098940;28;20643;-88
2020/12/19 10:18:49;;;;;;;9.50;8.60;;;8.90;99.90;;;;;;5093082;28;21220;-85
2020/12/19 10:21:15;;;;;;;8.60;7.53;;;9.10;99.90;;;;;;5093951;28;20761;-86
2020/12/19 10:23:42;;;;;;;8.90;8.10;;;9.20;99.90;;;;;;5096638;28;20650;-88
2020/12/19 10:26:11;;;;;;;8.70;8.07;;;9.30;99.90;;;;;;5093436;28;20657;-87
2020/12/19 10:28:37;;;;;;;9.53;8.60;;;9.60;99.90;;;;;;5094347;28;20667;-87
2020/12/19 10:31:04;;;;;;;9.30;8.40;;;9.80;99.90;;;;;;5100919;28;20708;-87
2020/12/19 10:33:30;;;;;;;9.07;8.13;;;10.00;99.90;;;;;;5090336;28;20638;-86
2020/12/19 10:35:56;;;;;;;9.03;8.23;;;10.20;99.60;;;;;;5091042;28;21220;-85
2020/12/19 10:38:23;;;;;;;11.67;8.33;;;10.30;99.30;;;;;;5092409;28;20651;-86
2020/12/19 10:40:50;;;;;;;10.77;9.80;;;10.40;99.50;;;;;;5092378;28;20643;-86
2020/12/19 10:43:16;;;;;;;8.90;8.10;;;10.60;98.70;;;;;;5096138;28;20610;-86
2020/12/19 10:45:42;;;;;;;8.20;7.40;;;10.70;98.40;;;;;;5089906;28;20650;-87
2020/12/19 10:48:09;;;;;;;9.70;8.87;;;10.90;98.60;;;;;;5090225;28;21145;-86
2020/12/19 10:50:35;;;;;;;8.50;7.70;;;11.10;98.00;;;;;;5087888;28;20624;-88
2020/12/19 10:53:01;;;;;;;8.77;7.70;;;11.20;98.00;;;;;;5086510;28;20623;-88
2020/12/19 10:55:27;;;;;;;9.77;8.80;;;11.30;97.90;;;;;;5090034;28;20641;-88
2020/12/19 10:57:56;;;;;;;9.40;8.50;;;11.40;97.80;;;;;;5090244;28;20984;-88
2020/12/19 11:00:23;;;;;;;9.63;8.50;;;11.40;97.70;;;;;;5096567;28;20700;-88
2020/12/19 11:02:49;;;;;;;9.53;8.50;;;11.70;97.40;;;;;;5089713;28;20633;-88
2020/12/19 11:05:16;;;;;;;9.70;8.80;;;11.80;96.80;;;;;;5091783;28;21076;-88
2020/12/19 11:07:43;;;;;;;10.90;7.90;;;12.10;96.80;;;;;;5095153;28;20664;-88
2020/12/19 11:10:11;;;;;;;10.10;9.00;;;12.30;96.10;;;;;;5096173;28;21031;-88
2020/12/19 11:12:37;;;;;;;10.13;8.70;;;12.50;96.10;;;;;;5097312;28;20674;-89
2020/12/19 11:15:05;;;;;;;8.00;7.20;;;12.50;96.00;;;;;;5087755;28;20661;-87
2020/12/19 11:17:32;;;;;;;9.80;7.43;;;12.70;95.40;;;;;;5097387;28;20637;-88
2020/12/19 11:19:59;;;;;;;9.20;8.30;;;12.90;95.60;;;;;;5085383;28;21206;-88
2020/12/19 11:22:25;;;;;;;9.67;8.77;;;13.10;95.10;;;;;;5087597;28;20723;-88
2020/12/19 11:24:51;;;;;;;8.77;7.90;;;12.90;95.00;;;;;;5089933;28;20625;-88
2020/12/19 11:27:18;;;;;;;8.93;8.07;;;13.00;95.00;;;;;;5095079;28;21131;-88
2020/12/19 11:29:44;;;;;;;9.03;8.20;;;13.20;94.60;;;;;;5090058;28;20628;-88
2020/12/19 11:32:11;;;;;;;9.00;8.20;;;13.70;94.40;;;;;;5088444;28;20625;-88
2020/12/19 11:34:37;;;;;;;10.00;8.20;;;13.80;93.60;;;;;;5089560;28;20625;-87
2020/12/19 11:37:05;;;;;;;8.30;7.50;;;13.60;93.50;;;;;;5093441;28;21025;-87
2020/12/19 11:39:33;;;;;;;11.30;8.30;;;13.70;93.80;;;;;;5091178;28;20609;-88
2020/12/19 11:42:01;;;;;;;9.13;8.23;;;13.90;93.40;;;;;;5091755;28;20622;-89
2020/12/19 11:44:29;;;;;;;9.30;8.40;;;14.00;93.40;;;;;;5090925;28;20632;-88
2020/12/19 11:47:12;;;;;;;8.57;7.87;;;14.20;93.20;;;;;;5125166;27;20823;-89
2020/12/19 11:49:38;;;;;;;9.53;8.50;;;14.70;92.40;;;;;;5101845;27;20641;-88
2020/12/19 11:52:08;;;;;;;8.40;7.63;;;14.70;92.50;;;;;;5109539;28;20622;-88
2020/12/19 11:54:35;;;;;;;8.70;8.00;;;15.10;91.50;;;;;;5108812;28;20638;-88
2020/12/19 11:57:02;;;;;;;10.23;7.50;;;15.20;91.00;;;;;;5102315;28;20651;-88
2020/12/19 11:59:28;;;;;;;9.00;7.60;;;15.10;91.30;;;;;;5101360;28;21210;-87
2020/12/19 12:01:55;;;;;;;8.00;7.30;;;15.30;90.90;;;;;;5101898;28;20657;-89
2020/12/19 12:04:22;;;;;;;7.00;6.40;;;15.60;90.60;;;;;;5099646;27;20616;-88
2020/12/19 12:06:48;;;;;;;7.03;6.33;;;15.70;90.30;;;;;;5099514;28;20882;-88
2020/12/19 12:09:15;;;;;;;6.97;6.37;;;15.60;90.60;;;;;;5104833;28;20754;-87
2020/12/19 12:11:42;;;;;;;6.83;6.13;;;15.90;89.90;;;;;;5102995;28;21400;-88
2020/12/19 12:14:09;;;;;;;5.93;5.43;;;16.00;89.20;;;;;;5102950;28;20639;-88
2020/12/19 12:16:36;;;;;;;6.70;6.20;;;16.10;88.70;;;;;;5104310;27;20649;-88
2020/12/19 12:19:02;;;;;;;6.57;6.00;;;16.20;88.00;;;;;;5103542;28;20627;-88
2020/12/19 12:21:36;;;;;;;6.50;6.00;;;16.10;87.80;;;;;;5103529;28;20946;-89
2020/12/19 12:24:03;;;;;;;7.30;5.60;;;16.90;88.30;;;;;;5106994;28;20615;-89
2020/12/19 12:26:30;;;;;;;7.10;6.50;;;17.20;84.40;;;;;;5107469;28;20761;-90
2020/12/19 12:28:58;;;;;;;6.00;5.60;;;17.10;84.00;;;;;;5098743;28;21131;-89
2020/12/19 12:31:26;;;;;;;11.73;6.10;;;17.50;83.90;;;;;;5104436;28;21061;-90
2020/12/19 12:33:53;;;;;;;6.87;6.37;;;17.30;84.40;;;;;;5103567;28;20628;-90
2020/12/19 12:36:22;;;;;;;7.70;6.30;;;17.60;84.00;;;;;;5104414;28;21003;-89
2020/12/19 12:38:55;;;;;;;7.27;6.57;;;16.90;85.30;;;;;;5101885;28;20621;-89
2020/12/19 12:41:22;;;;;;;6.60;6.00;;;16.70;86.00;;;;;;5102213;28;20612;-92
2020/12/19 12:43:48;;;;;;;7.07;6.47;;;16.80;87.00;;;;;;5106018;27;21039;-89
2020/12/19 12:46:16;;;;;;;7.13;6.53;;;16.90;86.80;;;;;;5104258;27;20644;-89